Time;durP1;ratioP1;P1;durP2;ratioP2;P2;SDS_P1;SDS_P2;PMS_P1;PMS_P2;Temp;Humidity;BMP_temperature;BMP_pressure;BME280_temperature;BME280_humidity;BME280_pressure;Samples;Min_cycle;Max_cycle;Signal;HPM_P1;HPM_P2
2022/05/12 00:00:57;;;;;;;3.70;2.00;;;;;;;17.31;50.48;95725.41;4994902;28;24432;-73
2022/05/12 00:03:25;;;;;;;2.57;1.87;;;;;;;17.26;52.29;95723.19;4994558;28;24586;-72
2022/05/12 00:05:52;;;;;;;5.70;2.17;;;;;;;17.14;52.11;95725.13;4994705;28;24424;-72
2022/05/12 00:08:18;;;;;;;3.17;1.92;;;;;;;17.10;52.32;95723.75;4994680;28;24487;-72
2022/05/12 00:10:44;;;;;;;3.80;1.80;;;;;;;17.11;52.25;95724.59;4994794;28;24818;-72
2022/05/12 00:13:12;;;;;;;2.73;2.10;;;;;;;17.16;52.09;95725.00;4994299;28;24421;-73
2022/05/12 00:15:39;;;;;;;3.70;2.13;;;;;;;17.12;53.27;95727.06;4994524;28;24429;-73
2022/05/12 00:18:08;;;;;;;5.23;1.83;;;;;;;16.99;53.15;95739.59;4994438;28;24425;-72
2022/05/12 00:20:36;;;;;;;2.40;1.93;;;;;;;16.92;53.70;95730.63;4994542;28;24421;-72
2022/05/12 00:23:08;;;;;;;3.33;2.20;;;;;;;16.89;53.38;95739.56;4994061;28;25047;-73
2022/05/12 00:25:34;;;;;;;3.53;2.10;;;;;;;16.85;53.95;95735.56;4994322;28;24424;-72
2022/05/12 00:28:01;;;;;;;2.08;1.85;;;;;;;16.92;54.17;95741.91;4994257;28;24433;-73
2022/05/12 00:30:29;;;;;;;2.83;2.00;;;;;;;16.98;53.34;95742.31;4994378;28;24475;-73
2022/05/12 00:32:55;;;;;;;4.13;2.10;;;;;;;16.96;53.33;95742.47;4994014;28;24417;-73
2022/05/12 00:35:22;;;;;;;3.40;2.08;;;;;;;16.97;53.13;95745.91;4994128;28;24977;-73
2022/05/12 00:37:48;;;;;;;3.90;2.20;;;;;;;16.94;53.22;95749.63;4994282;28;24435;-73
2022/05/12 00:40:16;;;;;;;3.72;2.10;;;;;;;16.98;53.18;95747.56;4994140;28;24424;-72
2022/05/12 00:42:57;;;;;;;2.03;1.80;;;;;;;17.05;52.64;95759.13;4993986;28;24423;-72
2022/05/12 00:45:24;;;;;;;2.80;1.90;;;;;;;17.08;52.38;95748.41;4994019;28;24499;-73
2022/05/12 00:47:52;;;;;;;4.07;2.25;;;;;;;17.16;52.32;95757.22;4993828;28;24432;-72
2022/05/12 00:50:21;;;;;;;2.88;2.10;;;;;;;17.23;52.51;95751.44;4993770;28;24483;-72
2022/05/12 00:52:48;;;;;;;3.57;2.40;;;;;;;17.27;52.78;95753.63;4993749;28;24488;-73
2022/05/12 00:55:21;;;;;;;4.18;2.20;;;;;;;17.33;52.46;95750.47;4993922;28;24425;-73
2022/05/12 00:57:51;;;;;;;2.70;2.17;;;;;;;17.36;52.54;95762.47;4993751;28;24421;-72
2022/05/12 01:00:19;;;;;;;3.40;2.20;;;;;;;17.29;53.15;95759.56;4993671;28;24421;-72
2022/05/12 01:02:48;;;;;;;3.50;2.13;;;;;;;17.27;53.86;95765.91;4993339;28;24424;-72
2022/05/12 01:05:17;;;;;;;2.30;1.83;;;;;;;17.20;54.19;95768.25;4993428;28;24449;-73
2022/05/12 01:07:44;;;;;;;3.13;2.05;;;;;;;17.22;54.43;95768.94;4993642;28;24417;-73
2022/05/12 01:10:12;;;;;;;3.50;2.20;;;;;;;17.14;56.30;95769.63;4993736;28;24423;-72
2022/05/12 01:12:40;;;;;;;2.30;1.77;;;;;;;17.09;54.77;95778.84;4993312;28;24426;-73
2022/05/12 01:15:09;;;;;;;3.30;2.00;;;;;;;17.17;56.28;95774.59;4993205;28;24424;-72
2022/05/12 01:17:35;;;;;;;4.10;2.35;;;;;;;16.68;57.16;95789.31;4993515;28;24424;-72
2022/05/12 01:20:02;;;;;;;5.80;2.40;;;;;;;16.44;58.14;95776.59;4993547;28;24425;-73
2022/05/12 01:22:51;;;;;;;3.63;2.25;;;;;;;16.54;57.82;95781.88;4993523;28;24504;-73
2022/05/12 01:25:21;;;;;;;3.25;1.92;;;;;;;16.53;58.18;95781.97;4993165;28;24440;-72
2022/05/12 01:27:48;;;;;;;4.80;2.20;;;;;;;16.16;59.57;95783.34;4993305;28;24458;-73
2022/05/12 01:30:21;;;;;;;3.17;2.00;;;;;;;16.49;60.26;95776.19;4993372;28;24432;-72
2022/05/12 01:32:48;;;;;;;4.10;2.50;;;;;;;16.35;61.21;95787.00;4993000;28;24425;-72
2022/05/12 01:35:16;;;;;;;5.38;2.50;;;;;;;16.36;60.48;95796.50;4993116;28;24479;-72
2022/05/12 01:37:45;;;;;;;3.22;2.20;;;;;;;16.32;60.72;95800.34;4992936;28;24472;-73
2022/05/12 01:40:15;;;;;;;2.63;1.90;;;;;;;16.50;59.96;95801.41;4992971;28;24795;-72
2022/05/12 01:42:43;;;;;;;6.18;2.67;;;;;;;16.25;59.92;95810.50;4992889;28;24424;-73
2022/05/12 01:45:11;;;;;;;3.97;1.88;;;;;;;16.25;59.64;95807.06;4992937;28;24448;-73
2022/05/12 01:47:38;;;;;;;3.17;2.27;;;;;;;16.43;59.57;95811.53;4992891;28;24516;-73
2022/05/12 01:50:06;;;;;;;2.75;2.03;;;;;;;16.42;60.61;95820.31;4992855;28;24496;-72
2022/05/12 01:52:32;;;;;;;3.20;1.90;;;;;;;16.37;61.08;95824.28;4992405;28;24421;-74
2022/05/12 01:54:59;;;;;;;3.50;2.55;;;;;;;16.30;62.50;95828.38;4992599;28;24921;-73
2022/05/12 01:57:27;;;;;;;4.80;2.03;;;;;;;16.04;63.26;95830.56;4992924;28;24421;-73
2022/05/12 01:59:55;;;;;;;4.38;2.08;;;;;;;16.12;63.36;95830.75;4992541;28;24436;-73
2022/05/12 02:02:21;;;;;;;4.68;2.15;;;;;;;16.23;64.78;95830.69;4992667;28;24424;-73
2022/05/12 02:04:48;;;;;;;2.85;2.10;;;;;;;16.29;66.67;95824.13;4992193;28;24982;-73
2022/05/12 02:07:15;;;;;;;5.15;2.38;;;;;;;16.01;66.90;95834.28;4992321;28;24984;-73
2022/05/12 02:09:42;;;;;;;4.00;2.45;;;;;;;16.01;66.39;95836.06;4992627;28;24424;-72
2022/05/12 02:12:09;;;;;;;4.35;2.40;;;;;;;15.91;66.15;95834.22;4992617;28;24475;-73
2022/05/12 02:14:35;;;;;;;5.28;2.13;;;;;;;15.89;67.38;95840.53;4992314;28;24520;-72
2022/05/12 02:17:04;;;;;;;2.37;2.10;;;;;;;15.96;67.93;95842.50;4991683;28;24417;-73
2022/05/12 02:19:30;;;;;;;5.68;2.58;;;;;;;16.18;73.31;95841.53;5019108;22;25032;-75
2022/05/12 02:22:00;;;;;;;5.72;2.33;;;;;;;16.44;71.74;95846.34;5011989;28;24479;-75
2022/05/12 02:24:26;;;;;;;6.03;2.40;;;;;;;16.64;69.72;95858.53;5011616;28;24499;-75
2022/05/12 02:26:53;;;;;;;4.28;2.42;;;;;;;16.77;68.92;95857.53;5021339;28;24439;-75
2022/05/12 02:29:19;;;;;;;5.37;2.83;;;;;;;16.81;68.82;95861.53;5034027;28;24412;-75
2022/05/12 02:31:46;;;;;;;4.43;2.13;;;;;;;16.88;67.67;95855.63;5034508;28;24419;-75
2022/05/12 02:34:14;;;;;;;4.07;2.47;;;;;;;16.91;67.37;95865.03;5014577;28;24455;-75
2022/05/12 02:36:40;;;;;;;3.33;2.10;;;;;;;16.88;66.62;95873.13;5012235;28;24428;-75
2022/05/12 02:39:07;;;;;;;4.20;2.53;;;;;;;16.89;65.84;95870.38;5011735;28;24427;-75
2022/05/12 02:41:33;;;;;;;3.35;2.30;;;;;;;16.91;66.69;95876.31;5011760;28;24431;-75
2022/05/12 02:43:59;;;;;;;4.38;2.97;;;;;;;16.81;67.35;95874.63;5011226;28;24444;-75
2022/05/12 02:46:26;;;;;;;3.95;2.40;;;;;;;16.81;68.07;95872.00;5011352;28;24949;-75
2022/05/12 02:48:53;;;;;;;3.00;1.98;;;;;;;16.88;68.10;95888.81;5010969;28;24479;-75
2022/05/12 02:51:20;;;;;;;4.20;2.10;;;;;;;16.85;68.46;95896.94;5011554;28;24421;-75
2022/05/12 02:53:47;;;;;;;5.10;2.00;;;;;;;16.79;69.44;95895.66;5011265;28;24427;-75
2022/05/12 02:56:13;;;;;;;5.05;2.10;;;;;;;17.04;69.31;95890.94;5011221;28;24419;-75
2022/05/12 02:58:40;;;;;;;4.50;2.03;;;;;;;16.97;69.56;95902.88;5011060;28;25032;-75
2022/05/12 03:01:07;;;;;;;5.50;1.90;;;;;;;17.08;69.82;95900.16;5011212;28;24460;-75
2022/05/12 03:03:34;;;;;;;3.20;1.80;;;;;;;17.03;70.54;95894.53;5010800;28;24837;-75
2022/05/12 03:06:01;;;;;;;3.75;1.95;;;;;;;16.99;70.53;95899.19;5011082;28;24508;-75
2022/05/12 03:08:28;;;;;;;3.33;1.80;;;;;;;16.96;71.00;95906.47;5011199;28;24514;-75
2022/05/12 03:10:55;;;;;;;4.95;2.08;;;;;;;17.02;70.88;95898.94;5011145;28;24420;-75
2022/05/12 03:13:22;;;;;;;5.25;1.80;;;;;;;17.07;70.71;95899.34;5010882;28;24412;-75
2022/05/12 03:15:49;;;;;;;2.58;1.60;;;;;;;17.05;71.00;95893.41;5010732;28;24527;-75
2022/05/12 03:18:15;;;;;;;5.65;1.73;;;;;;;17.04;71.20;95904.03;5011014;28;24475;-74
2022/05/12 03:20:42;;;;;;;5.40;1.73;;;;;;;16.93;71.68;95908.38;5011062;28;24535;-75
2022/05/12 03:23:08;;;;;;;4.25;1.80;;;;;;;16.91;71.92;95906.88;5010827;28;24424;-75
2022/05/12 03:25:36;;;;;;;4.90;1.90;;;;;;;16.90;71.78;95911.25;5010830;28;24537;-75
2022/05/12 03:28:03;;;;;;;5.80;2.00;;;;;;;16.85;71.79;95913.44;5010664;28;24462;-75
2022/05/12 03:30:29;;;;;;;3.15;1.92;;;;;;;16.80;72.16;95915.63;5010648;28;24486;-75
2022/05/12 03:32:55;;;;;;;7.82;2.08;;;;;;;16.75;72.15;95920.41;5010482;28;24981;-75
2022/05/12 03:35:23;;;;;;;6.78;1.80;;;;;;;16.74;72.29;95910.09;5010716;28;24499;-74
2022/05/12 03:37:49;;;;;;;2.75;1.73;;;;;;;16.74;72.31;95916.16;5010642;28;24424;-74
2022/05/12 03:40:18;;;;;;;4.90;1.80;;;;;;;16.78;72.05;95925.38;5010430;28;24428;-75
2022/05/12 03:42:46;;;;;;;2.35;1.60;;;;;;;16.76;72.19;95919.47;5010198;28;24467;-75
2022/05/12 03:45:11;;;;;;;6.00;1.75;;;;;;;16.72;72.34;95922.44;5009920;28;24475;-75
2022/05/12 03:47:41;;;;;;;2.95;1.52;;;;;;;16.73;71.84;95914.47;5010352;28;24515;-74
2022/05/12 03:50:11;;;;;;;3.80;1.42;;;;;;;16.71;72.11;95919.00;5010477;28;24431;-74
2022/05/12 03:52:38;;;;;;;3.65;1.70;;;;;;;16.76;71.86;95935.16;5010403;28;24424;-74
2022/05/12 03:55:06;;;;;;;4.22;1.77;;;;;;;16.78;71.89;95930.63;5010489;28;24425;-74
2022/05/12 03:57:33;;;;;;;3.40;1.47;;;;;;;16.77;72.04;95934.22;5010441;28;24934;-74
2022/05/12 04:00:01;;;;;;;4.25;1.45;;;;;;;16.74;72.48;95946.72;5010377;28;24822;-75
2022/05/12 04:02:27;;;;;;;3.50;1.73;;;;;;;16.69;73.01;95947.91;5010672;28;24416;-75
2022/05/12 04:04:53;;;;;;;1.73;1.17;;;;;;;16.60;73.43;95953.06;5010187;28;24460;-75
2022/05/12 04:07:22;;;;;;;2.65;1.58;;;;;;;16.59;73.77;95947.00;5010577;28;24427;-74
2022/05/12 04:09:49;;;;;;;5.43;1.30;;;;;;;16.63;73.99;95950.19;5010346;28;24443;-75
2022/05/12 04:12:17;;;;;;;2.67;1.40;;;;;;;16.66;73.52;95952.56;5010247;28;24518;-75
2022/05/12 04:14:44;;;;;;;2.35;1.48;;;;;;;16.67;73.55;95962.06;5010244;28;24478;-74
2022/05/12 04:17:15;;;;;;;3.15;1.45;;;;;;;16.66;74.09;95965.63;5010577;28;24416;-74
2022/05/12 04:19:43;;;;;;;4.28;1.38;;;;;;;16.64;74.37;95973.59;5010233;28;24486;-75
2022/05/12 04:22:09;;;;;;;3.42;1.40;;;;;;;16.65;76.12;95974.44;5010366;28;24424;-74
2022/05/12 04:24:36;;;;;;;2.30;1.30;;;;;;;16.50;76.99;95971.31;5010058;28;24448;-74
2022/05/12 04:27:03;;;;;;;2.30;1.30;;;;;;;16.51;76.14;95977.38;5010411;28;24507;-74
2022/05/12 04:29:29;;;;;;;2.38;1.10;;;;;;;16.42;77.36;95973.72;5010449;28;24420;-74
2022/05/12 04:31:56;;;;;;;3.90;1.60;;;;;;;16.36;78.33;95976.88;5010678;28;24782;-74
2022/05/12 04:37:08;;;;;;;2.83;1.30;;;;;;;16.30;78.27;95982.59;5008783;28;24423;-74
2022/05/12 04:39:34;;;;;;;2.75;1.42;;;;;;;16.31;78.44;95992.06;5010845;28;24482;-74
2022/05/12 04:42:01;;;;;;;1.83;1.30;;;;;;;16.42;78.93;95990.22;5013875;28;24791;-74
2022/05/12 04:44:27;;;;;;;1.83;1.35;;;;;;;16.51;78.49;95991.28;5013368;28;24444;-74
2022/05/12 04:46:54;;;;;;;4.15;1.40;;;;;;;16.60;77.72;95993.09;5013131;28;24416;-74
2022/05/12 04:49:20;;;;;;;2.10;1.20;;;;;;;16.65;76.95;95998.81;5010074;28;24468;-73
2022/05/12 04:51:48;;;;;;;2.78;1.58;;;;;;;16.70;76.46;95999.25;5012781;28;24508;-74
2022/05/12 04:54:14;;;;;;;3.65;1.70;;;;;;;16.73;75.66;96016.47;5013449;28;24482;-75
2022/05/12 04:56:42;;;;;;;3.92;1.65;;;;;;;16.80;75.59;96003.75;5006034;28;24495;-74
2022/05/12 04:59:10;;;;;;;3.85;1.40;;;;;;;16.91;75.59;96007.13;4993812;28;24421;-75
2022/05/12 05:01:37;;;;;;;5.20;1.70;;;;;;;17.09;77.45;96012.59;4993753;28;24421;-74
2022/05/12 05:04:03;;;;;;;2.88;1.60;;;;;;;17.21;77.28;96015.94;4993358;28;24957;-75
2022/05/12 05:06:30;;;;;;;2.45;1.60;;;;;;;17.25;74.64;96021.75;4993532;28;24457;-75
2022/05/12 05:08:59;;;;;;;3.75;1.88;;;;;;;17.22;74.22;96022.00;4993445;28;24425;-74
2022/05/12 05:11:25;;;;;;;4.15;1.50;;;;;;;17.37;73.27;96025.91;4993590;28;24783;-74
2022/05/12 05:13:52;;;;;;;3.00;1.45;;;;;;;17.51;72.71;96030.78;4993409;28;24421;-74
2022/05/12 05:16:19;;;;;;;2.15;1.33;;;;;;;17.55;73.12;96039.22;4993013;28;24954;-72
2022/05/12 05:18:46;;;;;;;5.72;1.65;;;;;;;17.33;74.01;96033.19;4995401;28;24432;-72
2022/05/12 05:21:12;;;;;;;2.88;1.83;;;;;;;17.30;74.99;96040.50;5012834;28;24482;-73
2022/05/12 05:23:39;;;;;;;3.13;1.70;;;;;;;17.13;75.83;96042.75;5012452;28;24451;-73
2022/05/12 05:26:08;;;;;;;3.05;1.38;;;;;;;17.24;75.55;96048.84;5015452;28;25004;-73
2022/05/12 05:28:34;;;;;;;2.47;1.50;;;;;;;17.32;75.75;96055.13;5015227;28;24482;-73
2022/05/12 05:31:01;;;;;;;4.93;1.70;;;;;;;17.42;76.44;96068.22;5012990;28;24420;-73
2022/05/12 05:33:28;;;;;;;3.80;1.90;;;;;;;17.60;74.90;96065.81;5011626;28;24439;-73
2022/05/12 05:35:54;;;;;;;3.05;1.50;;;;;;;17.62;74.45;96080.47;5012142;28;24965;-73
2022/05/12 05:38:21;;;;;;;4.15;1.60;;;;;;;17.52;75.08;96082.19;5012621;28;24518;-73
2022/05/12 05:40:47;;;;;;;2.67;1.77;;;;;;;17.66;74.90;96083.66;5012626;28;24422;-73
2022/05/12 05:43:15;;;;;;;3.58;1.98;;;;;;;17.81;73.79;96086.75;5011742;28;24419;-73
2022/05/12 05:45:42;;;;;;;8.55;1.65;;;;;;;17.92;73.55;96088.44;5011215;28;24784;-74
2022/05/12 05:48:09;;;;;;;3.47;1.38;;;;;;;18.07;72.54;96087.94;5000397;28;24607;-74
2022/05/12 05:53:27;;;;;;;5.28;1.67;;;;;;;17.84;73.56;96094.38;4991535;28;24421;-74
2022/05/12 05:55:56;;;;;;;2.33;1.50;;;;;;;17.76;74.52;96092.41;4992228;28;24926;-74
2022/05/12 05:58:25;;;;;;;3.17;1.65;;;;;;;17.77;75.19;96099.28;4992307;28;25013;-73
2022/05/12 06:00:52;;;;;;;3.08;1.40;;;;;;;17.54;75.57;96103.88;4992454;28;24421;-74
2022/05/12 06:03:18;;;;;;;2.30;1.52;;;;;;;17.51;77.32;96098.88;4991867;28;24425;-74
2022/05/12 06:05:45;;;;;;;2.95;1.70;;;;;;;17.72;75.56;96103.22;4991902;28;25012;-74
2022/05/12 06:08:14;;;;;;;4.35;1.70;;;;;;;17.71;75.13;96098.97;4992233;28;24850;-74
2022/05/12 06:10:41;;;;;;;5.10;1.88;;;;;;;18.14;72.82;96110.03;4992275;28;24503;-74
2022/05/12 06:13:08;;;;;;;4.05;1.58;;;;;;;18.31;72.37;96112.94;5005272;28;24435;-73
2022/05/12 06:15:36;;;;;;;2.38;1.60;;;;;;;18.25;72.73;96113.50;5011328;28;24459;-73
2022/05/12 06:18:07;;;;;;;3.77;1.70;;;;;;;18.31;72.82;96126.06;5011185;28;24439;-74
2022/05/12 06:20:33;;;;;;;2.43;1.63;;;;;;;18.54;72.13;96121.38;5011785;28;24420;-74
2022/05/12 06:23:00;;;;;;;4.30;1.60;;;;;;;18.42;73.76;96122.47;5011590;28;24427;-74
2022/05/12 06:25:26;;;;;;;4.72;1.65;;;;;;;18.24;75.15;96128.38;5011552;28;24455;-74
2022/05/12 06:27:53;;;;;;;6.47;1.60;;;;;;;17.91;75.28;96126.94;5012208;28;24905;-74
2022/05/12 06:30:19;;;;;;;3.28;1.45;;;;;;;18.01;77.79;96127.78;5011714;28;24431;-73
2022/05/12 06:32:47;;;;;;;2.65;1.58;;;;;;;18.05;77.67;96126.53;5011323;28;24451;-71
2022/05/12 06:35:17;;;;;;;5.15;1.60;;;;;;;17.75;77.95;96134.41;5011587;28;24462;-74
2022/05/12 06:37:44;;;;;;;4.68;1.65;;;;;;;17.60;78.49;96133.91;5011457;28;24515;-73
2022/05/12 06:40:12;;;;;;;2.17;1.25;;;;;;;17.39;79.02;96137.41;5010937;28;24794;-74
2022/05/12 06:42:41;;;;;;;2.90;1.47;;;;;;;17.25;80.40;96140.34;5011446;28;24475;-73
2022/05/12 06:45:09;;;;;;;3.50;1.70;;;;;;;17.14;80.92;96141.25;5010750;28;25083;-73
2022/05/12 06:47:35;;;;;;;2.85;1.45;;;;;;;17.22;81.16;96145.84;5011752;28;24523;-73
2022/05/12 06:50:04;;;;;;;2.47;1.50;;;;;;;17.13;81.29;96141.34;5011662;28;24427;-73
2022/05/12 06:52:31;;;;;;;2.92;1.35;;;;;;;17.13;81.58;96134.38;5011128;28;24984;-74
2022/05/12 06:54:57;;;;;;;1.98;1.50;;;;;;;17.20;81.64;96146.91;5011564;28;24424;-73
2022/05/12 06:57:27;;;;;;;2.45;1.48;;;;;;;17.27;80.95;96142.84;5011294;28;24984;-73
2022/05/12 06:59:54;;;;;;;12.68;2.00;;;;;;;17.45;82.17;96157.00;5011640;28;24428;-79
2022/05/12 07:02:22;;;;;;;4.53;1.50;;;;;;;17.58;82.18;96157.63;5010985;28;24420;-74
2022/05/12 07:04:48;;;;;;;3.00;1.50;;;;;;;17.52;82.01;96160.75;5011120;28;24444;-73
2022/05/12 07:07:16;;;;;;;2.20;1.50;;;;;;;17.54;79.84;96166.72;5011387;28;24490;-73
2022/05/12 07:09:42;;;;;;;5.43;1.63;;;;;;;17.64;80.94;96156.28;5010980;28;24969;-74
2022/05/12 07:12:11;;;;;;;4.53;1.50;;;;;;;17.94;79.03;96163.31;5011309;28;24432;-74
2022/05/12 07:14:37;;;;;;;4.93;1.80;;;;;;;17.83;78.16;96166.03;5010706;28;24533;-74
2022/05/12 07:17:04;;;;;;;3.90;1.57;;;;;;;17.52;80.23;96163.38;5011403;28;24453;-73
2022/05/12 07:19:31;;;;;;;3.85;1.50;;;;;;;17.59;80.87;96166.31;5010599;28;24977;-73
2022/05/12 07:27:27;;;;;;;3.13;1.40;;;;;;;17.76;79.82;96175.38;5010793;28;25020;-73
2022/05/12 07:29:54;;;;;;;4.17;1.77;;;;;;;17.66;79.31;96173.53;5010698;28;25028;-73
2022/05/12 07:32:20;;;;;;;3.60;1.50;;;;;;;17.79;80.62;96175.94;5011159;28;24424;-73
2022/05/12 07:34:47;;;;;;;6.07;1.67;;;;;;;17.97;77.91;96170.94;5010801;28;24420;-74
2022/05/12 07:37:14;;;;;;;2.35;1.70;;;;;;;18.11;77.17;96181.06;5010709;28;24833;-74
2022/05/12 07:39:40;;;;;;;3.70;1.87;;;;;;;17.97;77.71;96184.03;5010797;28;24809;-74
2022/05/12 07:42:09;;;;;;;5.95;1.70;;;;;;;17.90;77.55;96178.47;5010693;28;24455;-73
2022/05/12 07:44:35;;;;;;;3.90;1.50;;;;;;;17.88;79.42;96185.66;5010531;28;24432;-74
2022/05/12 07:47:04;;;;;;;3.35;1.80;;;;;;;17.85;78.68;96179.84;5010893;28;24532;-73
2022/05/12 07:49:35;;;;;;;2.87;1.40;;;;;;;17.62;78.87;96185.22;5010856;28;24431;-73
2022/05/12 07:52:03;;;;;;;3.40;1.58;;;;;;;17.72;80.37;96184.44;5010916;28;24428;-73
2022/05/12 07:54:29;;;;;;;5.78;2.15;;;;;;;17.65;80.07;96181.53;5010596;28;24428;-74
2022/05/12 07:56:57;;;;;;;2.85;1.63;;;;;;;17.76;80.60;96184.09;5010705;28;24416;-74
2022/05/12 07:59:27;;;;;;;5.15;1.65;;;;;;;17.85;79.69;96179.84;5010523;28;24428;-73
2022/05/12 08:01:54;;;;;;;6.32;2.03;;;;;;;17.91;80.72;96187.19;5010561;28;24443;-74
2022/05/12 08:04:20;;;;;;;3.93;1.63;;;;;;;18.22;79.04;96185.38;5010463;28;24510;-73
2022/05/12 08:06:47;;;;;;;2.28;1.45;;;;;;;18.37;78.63;96193.69;5010743;28;24432;-74
2022/05/12 08:09:13;;;;;;;2.90;1.98;;;;;;;18.40;76.75;96193.44;5010853;28;24429;-73
2022/05/12 08:11:41;;;;;;;5.00;1.60;;;;;;;18.28;75.92;96197.09;5010280;28;25016;-73
2022/05/12 08:14:07;;;;;;;3.33;1.70;;;;;;;18.65;75.72;96200.00;5010137;28;24969;-73
2022/05/12 08:16:35;;;;;;;4.75;1.80;;;;;;;18.46;74.58;96202.56;5013973;28;24486;-73
2022/05/12 08:19:02;;;;;;;5.22;1.70;;;;;;;18.59;75.62;96201.34;5014704;28;24439;-73
2022/05/12 08:21:28;;;;;;;3.30;1.60;;;;;;;19.10;71.50;96208.22;5014669;28;24506;-73
2022/05/12 08:23:55;;;;;;;5.00;1.92;;;;;;;19.47;71.48;96204.88;5014299;28;24425;-74
2022/05/12 08:26:23;;;;;;;7.10;1.70;;;;;;;19.68;69.45;96199.44;5025232;28;24502;-73
2022/05/12 08:28:50;;;;;;;3.72;1.70;;;;;;;19.43;70.52;96203.50;5020941;28;24973;-73
2022/05/12 08:31:17;;;;;;;7.10;3.20;;;;;;;19.65;68.24;96196.28;5015083;28;24423;-74
2022/05/12 08:33:45;;;;;;;7.90;1.70;;;;;;;19.65;67.59;96198.91;5014512;28;24411;-75
2022/05/12 08:36:11;;;;;;;3.30;1.75;;;;;;;19.85;65.94;96191.81;5013897;28;24443;-74
2022/05/12 08:38:40;;;;;;;4.35;1.60;;;;;;;20.24;64.55;96197.72;5013616;28;24956;-74
2022/05/12 08:41:17;;;;;;;5.72;2.00;;;;;;;20.27;63.73;96198.28;5013892;28;24435;-74
2022/05/12 08:43:53;;;;;;;4.20;2.08;;;;;;;20.21;63.24;96198.88;5013494;28;24444;-74
2022/05/12 08:46:22;;;;;;;3.88;2.03;;;;;;;20.69;63.90;96195.19;5013601;28;24539;-74
2022/05/12 08:48:57;;;;;;;5.97;1.88;;;;;;;21.08;62.63;96201.97;5013619;28;24829;-73
2022/05/12 08:51:24;;;;;;;3.17;1.88;;;;;;;21.80;64.61;96185.09;5013939;28;24415;-74
2022/05/12 08:53:55;;;;;;;5.45;1.90;;;;;;;21.56;59.40;96193.66;5013426;28;24431;-75
2022/05/12 08:56:24;;;;;;;3.35;1.70;;;;;;;21.91;58.27;96189.25;5013543;28;24424;-75
2022/05/12 08:58:54;;;;;;;3.08;1.60;;;;;;;21.80;58.33;96192.16;5013407;28;24424;-77
2022/05/12 09:01:28;;;;;;;3.60;2.10;;;;;;;21.40;59.76;96193.56;5013508;28;24540;-76
2022/05/12 09:04:28;;;;;;;5.70;2.10;;;;;;;21.29;59.11;96188.50;5013124;28;24425;-75
2022/05/12 09:07:01;;;;;;;3.30;2.13;;;;;;;21.65;57.76;96186.63;5013352;28;24440;-74
2022/05/12 09:09:35;;;;;;;5.03;1.88;;;;;;;21.61;58.63;96199.28;5013591;28;24416;-74
2022/05/12 09:12:08;;;;;;;3.30;1.73;;;;;;;21.70;58.21;96194.94;5013131;28;24424;-75
2022/05/12 09:14:41;;;;;;;3.80;2.07;;;;;;;21.00;60.50;96197.47;5012955;28;24810;-74
2022/05/12 09:17:13;;;;;;;3.67;2.00;;;;;;;20.98;61.51;96189.69;5013251;28;24422;-74
2022/05/12 09:19:41;;;;;;;4.07;1.95;;;;;;;20.80;64.03;96199.38;5012863;28;24996;-74
2022/05/12 09:22:07;;;;;;;5.97;2.57;;;;;;;20.56;62.21;96193.88;5013006;28;24455;-73
2022/05/12 09:24:34;;;;;;;4.80;2.13;;;;;;;20.84;60.26;96184.97;5012598;28;24478;-74
2022/05/12 09:27:09;;;;;;;5.72;2.58;;;;;;;21.11;59.17;96188.50;5012715;28;24448;-73
2022/05/12 09:29:46;;;;;;;3.60;2.00;;;;;;;21.36;59.30;96181.63;5012967;28;24419;-73
2022/05/12 09:32:23;;;;;;;6.35;2.38;;;;;;;21.36;57.97;96190.41;5012926;28;24942;-74
2022/05/12 09:35:08;;;;;;;14.73;2.67;;;;;;;21.74;57.98;96197.09;5012560;28;25049;-73
2022/05/12 09:37:36;;;;;;;3.55;2.08;;;;;;;22.19;55.35;96189.94;5012966;28;24783;-74
2022/05/12 09:40:16;;;;;;;8.00;2.15;;;;;;;22.27;54.89;96189.16;5012762;28;24482;-74
2022/05/12 09:42:45;;;;;;;4.95;2.10;;;;;;;22.36;53.74;96186.41;5012660;28;24427;-73
2022/05/12 09:45:24;;;;;;;4.55;2.40;;;;;;;22.22;55.65;96181.72;5013060;28;24428;-73
2022/05/12 09:47:51;;;;;;;8.68;2.58;;;;;;;21.56;55.82;96187.56;5012642;28;25183;-72
2022/05/12 09:50:26;;;;;;;4.13;2.25;;;;;;;21.61;56.34;96185.28;5012451;28;24436;-73
2022/05/12 09:53:00;;;;;;;5.07;2.30;;;;;;;21.39;58.66;96184.81;5012190;28;24417;-72
2022/05/12 09:55:29;;;;;;;6.77;2.40;;;;;;;21.19;60.36;96184.13;5012308;28;25142;-72
2022/05/12 09:57:58;;;;;;;2.88;2.17;;;;;;;21.48;59.79;96185.72;5012552;28;24417;-73
2022/05/12 10:00:36;;;;;;;3.15;2.38;;;;;;;21.39;58.53;96179.53;5012492;28;24829;-72
2022/05/12 10:09:04;;;;;;;4.95;2.53;;;;;;;21.48;58.38;96157.53;5012354;28;24416;-73
2022/05/12 10:11:34;;;;;;;6.50;2.90;;;;;;;21.47;55.76;96158.53;5012420;28;24938;-73
2022/05/12 10:14:04;;;;;;;5.55;2.33;;;;;;;21.99;56.20;96155.88;5012152;28;24416;-73
2022/05/12 10:16:32;;;;;;;3.47;2.50;;;;;;;21.88;54.63;96152.69;5012063;28;24519;-73
2022/05/12 10:19:03;;;;;;;6.50;2.83;;;;;;;21.48;56.01;96144.38;5011719;28;24425;-73
2022/05/12 10:21:38;;;;;;;3.33;2.65;;;;;;;21.38;56.94;96145.44;5012103;28;24511;-73
2022/05/12 10:24:13;;;;;;;5.35;2.67;;;;;;;21.27;56.64;96147.31;5011920;28;24475;-73
2022/05/12 10:26:44;;;;;;;4.15;2.80;;;;;;;21.90;56.55;96142.78;5011913;28;24443;-73
2022/05/12 10:29:26;;;;;;;2.63;2.38;;;;;;;21.71;55.95;96151.75;5011952;28;24486;-73
2022/05/12 10:32:06;;;;;;;6.18;2.88;;;;;;;21.53;55.44;96154.44;5012057;28;24864;-73
2022/05/12 10:34:44;;;;;;;6.53;2.90;;;;;;;21.61;56.43;96151.03;5011971;28;24428;-73
2022/05/12 10:37:26;;;;;;;9.25;3.17;;;;;;;21.80;56.35;96140.25;5011371;28;24432;-74
2022/05/12 10:40:02;;;;;;;4.97;2.85;;;;;;;22.28;54.60;96136.22;5011848;28;24432;-72
2022/05/12 10:42:57;;;;;;;4.60;2.67;;;;;;;22.52;52.66;96142.56;5010391;28;24440;-73
2022/05/12 10:45:26;;;;;;;5.05;2.72;;;;;;;22.84;50.79;96145.28;5011036;28;24439;-73
2022/05/12 10:48:15;;;;;;;3.65;2.72;;;;;;;23.17;50.97;96137.38;5011184;28;24969;-73
2022/05/12 10:50:49;;;;;;;6.10;2.83;;;;;;;23.46;49.20;96125.47;5011138;28;24941;-75
2022/05/12 10:53:26;;;;;;;6.65;2.97;;;;;;;23.32;50.29;96130.44;5010615;28;24416;-75
2022/05/12 10:56:03;;;;;;;4.95;2.88;;;;;;;23.37;51.90;96128.13;5011144;28;24786;-74
2022/05/12 10:58:36;;;;;;;3.55;2.80;;;;;;;23.58;49.19;96135.56;5011244;28;24478;-74
2022/05/12 11:01:18;;;;;;;4.07;2.60;;;;;;;23.04;51.35;96140.53;5011287;28;24969;-75
2022/05/12 11:03:53;;;;;;;7.07;2.85;;;;;;;23.21;50.61;96128.13;5011439;28;24413;-74
2022/05/12 11:06:22;;;;;;;6.05;2.85;;;;;;;23.49;49.57;96122.50;5011239;28;24482;-74
2022/05/12 11:08:55;;;;;;;4.32;3.00;;;;;;;23.06;49.90;96127.16;5011078;28;24432;-74
2022/05/12 11:11:26;;;;;;;4.50;2.33;;;;;;;23.00;50.60;96125.19;5011471;28;24433;-74
2022/05/12 11:14:00;;;;;;;4.15;2.45;;;;;;;22.49;50.99;96117.31;5011199;28;24462;-74
2022/05/12 11:16:31;;;;;;;4.68;2.58;;;;;;;22.90;50.99;96117.38;5011056;28;24424;-74
2022/05/12 11:19:05;;;;;;;5.15;2.78;;;;;;;22.46;53.13;96115.00;5010897;28;24431;-74
2022/05/12 11:21:37;;;;;;;3.88;2.55;;;;;;;22.46;53.00;96109.72;5011045;28;24434;-74
2022/05/12 11:24:21;;;;;;;3.20;2.40;;;;;;;22.38;52.96;96113.16;5010895;28;24424;-74
2022/05/12 11:26:59;;;;;;;4.38;3.08;;;;;;;22.28;53.03;96114.28;5013837;28;24523;-73
2022/05/12 11:29:44;;;;;;;8.82;3.13;;;;;;;22.39;54.61;96120.09;5014431;28;24486;-73
2022/05/12 11:32:20;;;;;;;4.63;2.97;;;;;;;22.54;51.63;96112.38;5011343;28;24427;-73
2022/05/12 11:34:51;;;;;;;5.25;3.15;;;;;;;23.02;49.98;96104.69;5011206;28;24424;-73
2022/05/12 11:37:33;;;;;;;4.28;3.15;;;;;;;23.21;48.12;96101.72;5011039;28;24416;-73
2022/05/12 11:40:04;;;;;;;9.98;3.35;;;;;;;23.47;48.21;96096.22;5010712;28;24456;-73
2022/05/12 11:44:23;;;;;;;5.88;3.10;;;;;;;23.48;50.12;96107.66;5011709;28;24427;-73
2022/05/12 11:45:37;;;;;;;6.15;3.10;;;;;;;23.21;48.85;96095.59;5010396;28;24427;-74
2022/05/12 11:48:20;;;;;;;5.45;3.10;;;;;;;23.20;49.41;96092.13;5010795;28;24436;-74
2022/05/12 11:51:13;;;;;;;4.38;2.80;;;;;;;22.76;50.31;96105.63;5013667;28;24424;-75
2022/05/12 11:53:55;;;;;;;8.07;3.35;;;;;;;22.55;50.35;96100.03;5014843;28;24424;-75
2022/05/12 11:56:45;;;;;;;5.07;3.10;;;;;;;22.97;51.78;96099.91;5015010;28;24965;-73
2022/05/12 11:59:24;;;;;;;5.70;3.33;;;;;;;23.14;50.35;96092.81;5015014;28;24424;-73
2022/05/12 12:01:55;;;;;;;7.53;3.10;;;;;;;23.23;49.19;96091.81;5014912;28;24431;-73